Hokah, MN (55941)

8:02 AM CST on January 18, 2017 (GMT -0600)
Day Creek - Mound Prairie | | Change Station

Elev 771 ft 43.80 °N, 91.43 °W | Updated 27 seconds ago

Overcast
Overcast
29.8 °F
Feels Like 23 °F
N
7.2
Wind Variable Wind from South
Gusts 8.0 mph

Today
High -- | Low -- °F
--% Chance of Precip.
Yesterday
High -- | Low -- °F
Precip. -- in
Pressure 30.07 in
Visibility 10.0 miles
Clouds Scattered Clouds 1100 ft
Windchill 23 °F
Dew Point 29 °F
Humidity 95%
Rainfall 0.00 in
Snow Depth Not available.
7:34 AM 4:58 PM
Waning Gibbous, 63% visible
METAR KLSE 181353Z 19011KT 10SM SCT011 01/M02 A3004 RMK AO2 SLP182 T00061022
Pressure 30.07 in
Visibility 10.0 miles
Clouds Scattered Clouds 1100 ft
Windchill 23 °F
Dew Point 29 °F
Humidity 95%
Rainfall 0.00 in
Snow Depth Not available.
7:34 AM 4:58 PM
Waning Gibbous, 63% visible
METAR KLSE 181353Z 19011KT 10SM SCT011 01/M02 A3004 RMK AO2 SLP182 T00061022

Get Your Daily Forecast Email!

Thanks for signing up!

Be on the lookout for a verification email in your inbox.

You'll start receiving the daily forecast at 8 AM.

×

10-Day Weather Forecast

Almanac

Astronomy

Jan. 18, 2017 Rise Set
Actual Time
Civil Twilight
Nautical Twilight
Astronomical Twilight
Moon
Length of Visible Light
Length of Day
Tomorrow will be .
, % of the Moon is Illuminated

Today's Extremes

State Highs State Lows

Community

WunderPhotos

Upload Photos

1,962,540 photos uploaded!

WunderBlog® & News

Nearby

Air Quality

  Air Quality AQ Index Pollutant
Not available.

Snow Depth

Station Depth Elevation

Earthquake Activity

City Distance Mag. Time & Date
Minimum magnitude displayed is 2.5.

Coastal Water Temperatures

Place Temperature

Stations

Nearby Weather Stations

Station Location Temp. Windchill Dew Point Humidity Wind Precip. Elev Updated Type
                   

Watches & Warnings

There are currently no watches in effect.